sensor_id;sensor_type;location;lat;lon;timestamp;temperature;humidity
7566;DHT22;3824;48.010;7.832;2023-02-01T00:00:18;5.40;99.90
7566;DHT22;3824;48.010;7.832;2023-02-01T00:02:45;5.40;99.90
7566;DHT22;3824;48.010;7.832;2023-02-01T00:05:13;5.40;99.90
7566;DHT22;3824;48.010;7.832;2023-02-01T00:07:40;6.30;99.90
7566;DHT22;3824;48.010;7.832;2023-02-01T00:10:08;5.40;99.90
7566;DHT22;3824;48.010;7.832;2023-02-01T00:12:35;5.40;99.90
7566;DHT22;3824;48.010;7.832;2023-02-01T00:15:02;5.40;99.90
7566;DHT22;3824;48.010;7.832;2023-02-01T00:17:29;5.40;99.90
7566;DHT22;3824;48.010;7.832;2023-02-01T00:19:56;5.70;99.90
7566;DHT22;3824;48.010;7.832;2023-02-01T00:22:25;6.40;99.90
7566;DHT22;3824;48.010;7.832;2023-02-01T00:24:51;5.30;99.90
7566;DHT22;3824;48.010;7.832;2023-02-01T00:27:18;5.40;99.90
7566;DHT22;3824;48.010;7.832;2023-02-01T00:29:46;5.30;99.90
7566;DHT22;3824;48.010;7.832;2023-02-01T00:32:14;5.30;99.90
7566;DHT22;3824;48.010;7.832;2023-02-01T00:34:41;6.60;99.90
7566;DHT22;3824;48.010;7.832;2023-02-01T00:37:07;5.30;99.90
7566;DHT22;3824;48.010;7.832;2023-02-01T00:39:36;5.30;99.90
7566;DHT22;3824;48.010;7.832;2023-02-01T00:42:03;5.30;99.90
7566;DHT22;3824;48.010;7.832;2023-02-01T00:44:30;5.30;99.90
7566;DHT22;3824;48.010;7.832;2023-02-01T00:46:59;5.30;99.90
7566;DHT22;3824;48.010;7.832;2023-02-01T00:49:26;5.30;99.90
7566;DHT22;3824;48.010;7.832;2023-02-01T00:51:53;5.20;99.90
7566;DHT22;3824;48.010;7.832;2023-02-01T00:54:21;5.20;99.90
7566;DHT22;3824;48.010;7.832;2023-02-01T00:56:49;5.20;99.90
7566;DHT22;3824;48.010;7.832;2023-02-01T00:59:16;5.20;99.90
7566;DHT22;3824;48.010;7.832;2023-02-01T01:01:43;6.50;99.90
7566;DHT22;3824;48.010;7.832;2023-02-01T01:04:10;5.50;99.90
7566;DHT22;3824;48.010;7.832;2023-02-01T01:06:36;5.10;99.90
7566;DHT22;3824;48.010;7.832;2023-02-01T01:09:05;6.10;99.90
7566;DHT22;3824;48.010;7.832;2023-02-01T01:11:34;5.10;99.90
7566;DHT22;3824;48.010;7.832;2023-02-01T01:14:03;5.10;99.90
7566;DHT22;3824;48.010;7.832;2023-02-01T01:16:31;5.10;99.90
7566;DHT22;3824;48.010;7.832;2023-02-01T01:18:59;5.10;99.90
7566;DHT22;3824;48.010;7.832;2023-02-01T01:21:26;5.10;99.90
7566;DHT22;3824;48.010;7.832;2023-02-01T01:23:54;5.00;99.90
7566;DHT22;3824;48.010;7.832;2023-02-01T01:26:22;5.10;99.90
7566;DHT22;3824;48.010;7.832;2023-02-01T01:28:49;5.00;99.90
7566;DHT22;3824;48.010;7.832;2023-02-01T01:31:19;5.00;99.90
7566;DHT22;3824;48.010;7.832;2023-02-01T01:33:48;6.20;99.90
7566;DHT22;3824;48.010;7.832;2023-02-01T01:36:15;5.10;99.90
7566;DHT22;3824;48.010;7.832;2023-02-01T01:38:42;5.10;99.90
7566;DHT22;3824;48.010;7.832;2023-02-01T01:41:13;6.00;99.90
7566;DHT22;3824;48.010;7.832;2023-02-01T01:43:52;6.00;99.90
7566;DHT22;3824;48.010;7.832;2023-02-01T01:46:22;6.20;99.90
7566;DHT22;3824;48.010;7.832;2023-02-01T01:48:53;6.10;99.90
7566;DHT22;3824;48.010;7.832;2023-02-01T01:51:22;5.00;99.90
7566;DHT22;3824;48.010;7.832;2023-02-01T01:53:56;5.00;99.90
7566;DHT22;3824;48.010;7.832;2023-02-01T01:56:25;5.00;99.90
7566;DHT22;3824;48.010;7.832;2023-02-01T01:58:53;5.00;99.90
7566;DHT22;3824;48.010;7.832;2023-02-01T02:01:22;5.00;99.90
7566;DHT22;3824;48.010;7.832;2023-02-01T02:03:50;5.00;99.90
7566;DHT22;3824;48.010;7.832;2023-02-01T02:06:24;7.40;99.90
7566;DHT22;3824;48.010;7.832;2023-02-01T02:08:52;5.80;99.90
7566;DHT22;3824;48.010;7.832;2023-02-01T02:11:19;5.00;99.90
7566;DHT22;3824;48.010;7.832;2023-02-01T02:13:49;6.60;99.90
7566;DHT22;3824;48.010;7.832;2023-02-01T02:16:33;5.00;99.90
7566;DHT22;3824;48.010;7.832;2023-02-01T02:22:12;5.00;99.90
7566;DHT22;3824;48.010;7.832;2023-02-01T02:24:55;5.00;99.90
7566;DHT22;3824;48.010;7.832;2023-02-01T02:27:38;6.00;99.90
7566;DHT22;3824;48.010;7.832;2023-02-01T02:30:49;5.00;99.90
7566;DHT22;3824;48.010;7.832;2023-02-01T02:36:31;5.00;99.90
7566;DHT22;3824;48.010;7.832;2023-02-01T02:39:06;5.90;99.90
7566;DHT22;3824;48.010;7.832;2023-02-01T02:41:44;5.00;99.90
7566;DHT22;3824;48.010;7.832;2023-02-01T02:44:36;4.90;99.90
7566;DHT22;3824;48.010;7.832;2023-02-01T02:47:26;4.90;99.90
7566;DHT22;3824;48.010;7.832;2023-02-01T02:50:12;4.90;99.90
7566;DHT22;3824;48.010;7.832;2023-02-01T02:53:03;4.90;99.90
7566;DHT22;3824;48.010;7.832;2023-02-01T02:55:52;5.00;99.90
7566;DHT22;3824;48.010;7.832;2023-02-01T02:58:33;6.20;99.90
7566;DHT22;3824;48.010;7.832;2023-02-01T03:01:17;4.90;99.90
7566;DHT22;3824;48.010;7.832;2023-02-01T03:04:01;5.00;99.90
7566;DHT22;3824;48.010;7.832;2023-02-01T03:06:37;5.00;99.90
7566;DHT22;3824;48.010;7.832;2023-02-01T03:09:09;5.90;99.90
7566;DHT22;3824;48.010;7.832;2023-02-01T03:11:38;5.00;99.90
7566;DHT22;3824;48.010;7.832;2023-02-01T03:14:25;4.90;99.90
7566;DHT22;3824;48.010;7.832;2023-02-01T03:16:58;5.50;99.90
7566;DHT22;3824;48.010;7.832;2023-02-01T03:19:29;5.00;99.90
7566;DHT22;3824;48.010;7.832;2023-02-01T03:22:01;5.00;99.90
7566;DHT22;3824;48.010;7.832;2023-02-01T03:24:33;5.00;99.90
7566;DHT22;3824;48.010;7.832;2023-02-01T03:27:05;5.00;99.90
7566;DHT22;3824;48.010;7.832;2023-02-01T03:29:38;5.00;99.90
7566;DHT22;3824;48.010;7.832;2023-02-01T03:32:06;6.80;99.90
7566;DHT22;3824;48.010;7.832;2023-02-01T03:34:34;5.80;99.90
7566;DHT22;3824;48.010;7.832;2023-02-01T03:37:05;5.00;99.90
7566;DHT22;3824;48.010;7.832;2023-02-01T03:39:36;6.60;99.90
7566;DHT22;3824;48.010;7.832;2023-02-01T03:42:08;4.90;99.90
7566;DHT22;3824;48.010;7.832;2023-02-01T03:44:40;4.90;99.90
7566;DHT22;3824;48.010;7.832;2023-02-01T03:47:10;5.80;99.90
7566;DHT22;3824;48.010;7.832;2023-02-01T03:49:41;4.90;99.90
7566;DHT22;3824;48.010;7.832;2023-02-01T03:52:14;4.90;99.90
7566;DHT22;3824;48.010;7.832;2023-02-01T03:54:43;5.20;99.90
7566;DHT22;3824;48.010;7.832;2023-02-01T03:57:13;4.80;99.90
7566;DHT22;3824;48.010;7.832;2023-02-01T03:59:41;4.80;99.90
7566;DHT22;3824;48.010;7.832;2023-02-01T04:02:08;6.00;99.90
7566;DHT22;3824;48.010;7.832;2023-02-01T04:04:35;6.40;99.90
7566;DHT22;3824;48.010;7.832;2023-02-01T04:07:02;4.70;99.90
7566;DHT22;3824;48.010;7.832;2023-02-01T04:09:30;4.70;99.90
7566;DHT22;3824;48.010;7.832;2023-02-01T04:11:57;4.70;99.90
7566;DHT22;3824;48.010;7.832;2023-02-01T04:14:24;6.00;99.90
7566;DHT22;3824;48.010;7.832;2023-02-01T04:16:51;4.60;99.90
7566;DHT22;3824;48.010;7.832;2023-02-01T04:19:18;5.70;99.90
7566;DHT22;3824;48.010;7.832;2023-02-01T04:21:45;4.60;99.90
7566;DHT22;3824;48.010;7.832;2023-02-01T04:24:11;4.70;99.90
7566;DHT22;3824;48.010;7.832;2023-02-01T04:26:40;4.50;99.90
7566;DHT22;3824;48.010;7.832;2023-02-01T04:29:08;4.50;99.90
7566;DHT22;3824;48.010;7.832;2023-02-01T04:31:35;4.60;99.90
7566;DHT22;3824;48.010;7.832;2023-02-01T04:34:02;4.60;99.90
7566;DHT22;3824;48.010;7.832;2023-02-01T04:36:29;4.50;99.90
7566;DHT22;3824;48.010;7.832;2023-02-01T04:38:57;4.50;99.90
7566;DHT22;3824;48.010;7.832;2023-02-01T04:41:24;6.70;99.90
7566;DHT22;3824;48.010;7.832;2023-02-01T04:43:52;4.40;99.90
7566;DHT22;3824;48.010;7.832;2023-02-01T04:46:19;4.60;99.90
7566;DHT22;3824;48.010;7.832;2023-02-01T04:48:46;4.30;99.90
7566;DHT22;3824;48.010;7.832;2023-02-01T04:51:13;4.30;99.90
7566;DHT22;3824;48.010;7.832;2023-02-01T04:53:40;4.60;99.90
7566;DHT22;3824;48.010;7.832;2023-02-01T04:56:07;4.60;99.90
7566;DHT22;3824;48.010;7.832;2023-02-01T04:58:34;5.80;99.90
7566;DHT22;3824;48.010;7.832;2023-02-01T05:01:03;4.40;99.90
7566;DHT22;3824;48.010;7.832;2023-02-01T05:03:30;5.50;99.90
7566;DHT22;3824;48.010;7.832;2023-02-01T05:05:57;4.40;99.90
7566;DHT22;3824;48.010;7.832;2023-02-01T05:08:24;4.30;99.90
7566;DHT22;3824;48.010;7.832;2023-02-01T05:10:52;5.40;99.90
7566;DHT22;3824;48.010;7.832;2023-02-01T05:13:19;6.00;99.90
7566;DHT22;3824;48.010;7.832;2023-02-01T05:16:05;4.30;99.90
7566;DHT22;3824;48.010;7.832;2023-02-01T05:18:32;4.30;99.90
7566;DHT22;3824;48.010;7.832;2023-02-01T05:20:59;4.60;99.90
7566;DHT22;3824;48.010;7.832;2023-02-01T05:23:27;5.20;99.90
7566;DHT22;3824;48.010;7.832;2023-02-01T05:25:58;5.80;99.90
7566;DHT22;3824;48.010;7.832;2023-02-01T05:28:25;5.10;99.90
7566;DHT22;3824;48.010;7.832;2023-02-01T05:30:52;4.40;99.90
7566;DHT22;3824;48.010;7.832;2023-02-01T05:33:21;4.40;99.90
7566;DHT22;3824;48.010;7.832;2023-02-01T05:35:49;5.50;99.90
7566;DHT22;3824;48.010;7.832;2023-02-01T05:38:15;4.40;99.90
7566;DHT22;3824;48.010;7.832;2023-02-01T05:40:43;5.30;99.90
7566;DHT22;3824;48.010;7.832;2023-02-01T05:43:14;5.00;99.90
7566;DHT22;3824;48.010;7.832;2023-02-01T05:45:41;5.00;99.90
7566;DHT22;3824;48.010;7.832;2023-02-01T05:48:08;4.40;99.90
7566;DHT22;3824;48.010;7.832;2023-02-01T05:50:37;4.40;99.90
7566;DHT22;3824;48.010;7.832;2023-02-01T05:53:04;4.30;99.90
7566;DHT22;3824;48.010;7.832;2023-02-01T05:55:31;5.50;99.90
7566;DHT22;3824;48.010;7.832;2023-02-01T05:57:58;4.30;99.90
7566;DHT22;3824;48.010;7.832;2023-02-01T06:00:25;5.60;99.90
7566;DHT22;3824;48.010;7.832;2023-02-01T06:02:52;4.30;99.90
7566;DHT22;3824;48.010;7.832;2023-02-01T06:05:19;5.40;99.90
7566;DHT22;3824;48.010;7.832;2023-02-01T06:07:47;4.30;99.90
7566;DHT22;3824;48.010;7.832;2023-02-01T06:10:15;5.20;99.90
7566;DHT22;3824;48.010;7.832;2023-02-01T06:12:42;4.20;99.90
7566;DHT22;3824;48.010;7.832;2023-02-01T06:15:10;4.20;99.90
7566;DHT22;3824;48.010;7.832;2023-02-01T06:17:37;4.20;99.90
7566;DHT22;3824;48.010;7.832;2023-02-01T06:20:05;4.20;99.90
7566;DHT22;3824;48.010;7.832;2023-02-01T06:22:33;4.20;99.90
7566;DHT22;3824;48.010;7.832;2023-02-01T06:25:02;6.00;99.90
7566;DHT22;3824;48.010;7.832;2023-02-01T06:27:29;4.20;99.90
7566;DHT22;3824;48.010;7.832;2023-02-01T06:29:56;4.20;99.90
7566;DHT22;3824;48.010;7.832;2023-02-01T06:32:23;4.30;99.90
7566;DHT22;3824;48.010;7.832;2023-02-01T06:34:50;4.20;99.90
7566;DHT22;3824;48.010;7.832;2023-02-01T06:37:18;4.30;99.90
7566;DHT22;3824;48.010;7.832;2023-02-01T06:39:45;4.30;99.90
7566;DHT22;3824;48.010;7.832;2023-02-01T06:42:13;5.30;99.90
7566;DHT22;3824;48.010;7.832;2023-02-01T06:44:40;4.30;99.90
7566;DHT22;3824;48.010;7.832;2023-02-01T06:47:07;4.30;99.90
7566;DHT22;3824;48.010;7.832;2023-02-01T06:49:34;4.30;99.90
7566;DHT22;3824;48.010;7.832;2023-02-01T06:52:00;4.30;99.90
7566;DHT22;3824;48.010;7.832;2023-02-01T06:54:27;4.30;99.90
7566;DHT22;3824;48.010;7.832;2023-02-01T06:56:55;4.30;99.90
7566;DHT22;3824;48.010;7.832;2023-02-01T06:59:23;5.40;99.90
7566;DHT22;3824;48.010;7.832;2023-02-01T07:01:50;6.10;99.90
7566;DHT22;3824;48.010;7.832;2023-02-01T07:04:17;4.40;99.90
7566;DHT22;3824;48.010;7.832;2023-02-01T07:06:43;4.30;99.90
7566;DHT22;3824;48.010;7.832;2023-02-01T07:09:10;4.70;99.90
7566;DHT22;3824;48.010;7.832;2023-02-01T07:11:37;4.40;99.90
7566;DHT22;3824;48.010;7.832;2023-02-01T07:14:08;6.70;99.90
7566;DHT22;3824;48.010;7.832;2023-02-01T07:16:36;4.40;99.90
7566;DHT22;3824;48.010;7.832;2023-02-01T07:19:04;4.40;99.90
7566;DHT22;3824;48.010;7.832;2023-02-01T07:21:31;4.40;99.90
7566;DHT22;3824;48.010;7.832;2023-02-01T07:23:59;5.00;99.90
7566;DHT22;3824;48.010;7.832;2023-02-01T07:26:25;6.00;99.90
7566;DHT22;3824;48.010;7.832;2023-02-01T07:28:52;4.50;99.90
7566;DHT22;3824;48.010;7.832;2023-02-01T07:31:19;4.40;99.90
7566;DHT22;3824;48.010;7.832;2023-02-01T07:33:49;4.50;99.90
7566;DHT22;3824;48.010;7.832;2023-02-01T07:36:17;4.50;99.90
7566;DHT22;3824;48.010;7.832;2023-02-01T07:38:45;4.50;99.90
7566;DHT22;3824;48.010;7.832;2023-02-01T07:41:13;4.50;99.90
7566;DHT22;3824;48.010;7.832;2023-02-01T07:43:40;4.90;99.90
7566;DHT22;3824;48.010;7.832;2023-02-01T07:46:07;4.60;99.90
7566;DHT22;3824;48.010;7.832;2023-02-01T07:48:34;6.20;99.90
7566;DHT22;3824;48.010;7.832;2023-02-01T07:51:04;4.50;99.90
7566;DHT22;3824;48.010;7.832;2023-02-01T07:53:33;4.60;99.90
7566;DHT22;3824;48.010;7.832;2023-02-01T07:56:00;4.80;99.90
7566;DHT22;3824;48.010;7.832;2023-02-01T07:58:27;4.50;99.90
7566;DHT22;3824;48.010;7.832;2023-02-01T08:00:54;5.80;99.90
7566;DHT22;3824;48.010;7.832;2023-02-01T08:03:39;5.80;99.90
7566;DHT22;3824;48.010;7.832;2023-02-01T08:06:07;4.60;99.90
7566;DHT22;3824;48.010;7.832;2023-02-01T08:08:34;4.70;99.90
7566;DHT22;3824;48.010;7.832;2023-02-01T08:11:02;4.70;99.90
7566;DHT22;3824;48.010;7.832;2023-02-01T08:13:30;4.70;99.90
7566;DHT22;3824;48.010;7.832;2023-02-01T08:15:58;4.80;99.90
7566;DHT22;3824;48.010;7.832;2023-02-01T08:18:25;4.80;99.90
7566;DHT22;3824;48.010;7.832;2023-02-01T08:20:52;4.80;99.90
7566;DHT22;3824;48.010;7.832;2023-02-01T08:23:21;4.90;99.90
7566;DHT22;3824;48.010;7.832;2023-02-01T08:25:48;4.90;99.90
7566;DHT22;3824;48.010;7.832;2023-02-01T08:28:15;4.90;99.90
7566;DHT22;3824;48.010;7.832;2023-02-01T08:30:42;5.00;99.90
7566;DHT22;3824;48.010;7.832;2023-02-01T08:33:09;5.00;99.90
7566;DHT22;3824;48.010;7.832;2023-02-01T08:35:37;5.00;99.90
7566;DHT22;3824;48.010;7.832;2023-02-01T08:38:04;6.30;99.90
7566;DHT22;3824;48.010;7.832;2023-02-01T08:40:32;5.10;99.90
7566;DHT22;3824;48.010;7.832;2023-02-01T08:42:59;5.10;99.90
7566;DHT22;3824;48.010;7.832;2023-02-01T08:45:28;5.10;99.90
7566;DHT22;3824;48.010;7.832;2023-02-01T08:47:55;5.10;99.90
7566;DHT22;3824;48.010;7.832;2023-02-01T08:50:23;5.10;99.90
7566;DHT22;3824;48.010;7.832;2023-02-01T08:52:50;5.20;99.90
7566;DHT22;3824;48.010;7.832;2023-02-01T08:55:18;5.20;99.90
7566;DHT22;3824;48.010;7.832;2023-02-01T08:57:46;5.20;99.90
7566;DHT22;3824;48.010;7.832;2023-02-01T09:00:15;5.20;99.90
7566;DHT22;3824;48.010;7.832;2023-02-01T09:02:42;5.20;99.90
7566;DHT22;3824;48.010;7.832;2023-02-01T09:05:09;5.20;99.90
7566;DHT22;3824;48.010;7.832;2023-02-01T09:07:36;5.10;99.90
7566;DHT22;3824;48.010;7.832;2023-02-01T09:10:04;6.30;99.90
7566;DHT22;3824;48.010;7.832;2023-02-01T09:12:33;5.10;99.90
7566;DHT22;3824;48.010;7.832;2023-02-01T09:15:02;6.80;99.90
7566;DHT22;3824;48.010;7.832;2023-02-01T09:17:29;5.10;99.90
7566;DHT22;3824;48.010;7.832;2023-02-01T09:19:56;6.20;99.90
7566;DHT22;3824;48.010;7.832;2023-02-01T09:22:23;6.20;99.90
7566;DHT22;3824;48.010;7.832;2023-02-01T09:24:53;5.30;99.90
7566;DHT22;3824;48.010;7.832;2023-02-01T09:27:19;5.30;99.90
7566;DHT22;3824;48.010;7.832;2023-02-01T09:29:46;6.90;99.90
7566;DHT22;3824;48.010;7.832;2023-02-01T09:32:19;5.40;99.90
7566;DHT22;3824;48.010;7.832;2023-02-01T09:34:45;5.50;99.90
7566;DHT22;3824;48.010;7.832;2023-02-01T09:37:12;5.60;99.90
7566;DHT22;3824;48.010;7.832;2023-02-01T09:39:39;5.60;99.90
7566;DHT22;3824;48.010;7.832;2023-02-01T09:42:16;5.60;99.90
7566;DHT22;3824;48.010;7.832;2023-02-01T09:45:13;5.60;99.90
7566;DHT22;3824;48.010;7.832;2023-02-01T09:47:48;7.20;99.90
7566;DHT22;3824;48.010;7.832;2023-02-01T09:50:19;5.60;99.90
7566;DHT22;3824;48.010;7.832;2023-02-01T09:52:52;5.70;99.90
7566;DHT22;3824;48.010;7.832;2023-02-01T09:55:24;5.80;99.90
7566;DHT22;3824;48.010;7.832;2023-02-01T09:57:56;6.30;99.90
7566;DHT22;3824;48.010;7.832;2023-02-01T10:00:27;6.00;99.90
7566;DHT22;3824;48.010;7.832;2023-02-01T10:02:57;6.30;99.90
7566;DHT22;3824;48.010;7.832;2023-02-01T10:08:20;6.20;99.90
7566;DHT22;3824;48.010;7.832;2023-02-01T10:10:52;6.20;99.90
7566;DHT22;3824;48.010;7.832;2023-02-01T10:13:33;6.20;99.90
7566;DHT22;3824;48.010;7.832;2023-02-01T10:16:16;6.30;99.90
7566;DHT22;3824;48.010;7.832;2023-02-01T10:19:06;6.30;99.90
7566;DHT22;3824;48.010;7.832;2023-02-01T10:21:43;6.40;99.90
7566;DHT22;3824;48.010;7.832;2023-02-01T10:24:20;6.50;99.90
7566;DHT22;3824;48.010;7.832;2023-02-01T10:26:53;6.50;99.90
7566;DHT22;3824;48.010;7.832;2023-02-01T10:29:25;6.60;99.90
7566;DHT22;3824;48.010;7.832;2023-02-01T10:31:53;6.70;99.90
7566;DHT22;3824;48.010;7.832;2023-02-01T10:34:26;6.90;99.90
7566;DHT22;3824;48.010;7.832;2023-02-01T10:36:55;6.70;99.90
7566;DHT22;3824;48.010;7.832;2023-02-01T10:39:23;6.70;99.90
7566;DHT22;3824;48.010;7.832;2023-02-01T10:41:50;7.10;99.90
7566;DHT22;3824;48.010;7.832;2023-02-01T10:44:20;6.60;99.90
7566;DHT22;3824;48.010;7.832;2023-02-01T10:46:49;6.50;99.90
7566;DHT22;3824;48.010;7.832;2023-02-01T10:49:19;6.50;99.90
7566;DHT22;3824;48.010;7.832;2023-02-01T10:51:55;6.50;99.90
7566;DHT22;3824;48.010;7.832;2023-02-01T10:54:33;6.40;99.90
7566;DHT22;3824;48.010;7.832;2023-02-01T10:57:00;7.80;99.90
7566;DHT22;3824;48.010;7.832;2023-02-01T10:59:29;6.40;99.90
7566;DHT22;3824;48.010;7.832;2023-02-01T11:01:59;6.40;99.90
7566;DHT22;3824;48.010;7.832;2023-02-01T11:04:30;6.40;99.90
7566;DHT22;3824;48.010;7.832;2023-02-01T11:07:07;6.40;99.90
7566;DHT22;3824;48.010;7.832;2023-02-01T11:09:39;6.40;99.90
7566;DHT22;3824;48.010;7.832;2023-02-01T11:12:26;6.50;99.90
7566;DHT22;3824;48.010;7.832;2023-02-01T11:14:58;6.60;99.90
7566;DHT22;3824;48.010;7.832;2023-02-01T11:17:28;6.70;99.90
7566;DHT22;3824;48.010;7.832;2023-02-01T11:20:00;6.90;99.90
7566;DHT22;3824;48.010;7.832;2023-02-01T11:22:28;7.00;99.90
7566;DHT22;3824;48.010;7.832;2023-02-01T11:24:56;7.10;99.90
7566;DHT22;3824;48.010;7.832;2023-02-01T11:27:25;7.20;99.90
7566;DHT22;3824;48.010;7.832;2023-02-01T11:29:54;7.30;99.90
7566;DHT22;3824;48.010;7.832;2023-02-01T11:32:23;7.40;99.90
7566;DHT22;3824;48.010;7.832;2023-02-01T11:34:55;7.50;99.90
7566;DHT22;3824;48.010;7.832;2023-02-01T11:37:25;7.60;99.90
7566;DHT22;3824;48.010;7.832;2023-02-01T11:39:56;7.60;99.90
7566;DHT22;3824;48.010;7.832;2023-02-01T11:42:23;7.70;99.90
7566;DHT22;3824;48.010;7.832;2023-02-01T11:44:50;7.70;99.90
7566;DHT22;3824;48.010;7.832;2023-02-01T11:47:26;7.70;99.90
7566;DHT22;3824;48.010;7.832;2023-02-01T11:49:54;7.70;99.90
7566;DHT22;3824;48.010;7.832;2023-02-01T11:52:41;7.70;99.90
7566;DHT22;3824;48.010;7.832;2023-02-01T11:55:30;7.70;99.90
7566;DHT22;3824;48.010;7.832;2023-02-01T11:58:09;7.70;99.90
7566;DHT22;3824;48.010;7.832;2023-02-01T12:00:52;7.80;99.90
7566;DHT22;3824;48.010;7.832;2023-02-01T12:03:39;6.50;99.90
7566;DHT22;3824;48.010;7.832;2023-02-01T12:06:15;7.80;99.90
7566;DHT22;3824;48.010;7.832;2023-02-01T12:09:05;7.80;99.90
7566;DHT22;3824;48.010;7.832;2023-02-01T12:11:48;7.80;99.90
7566;DHT22;3824;48.010;7.832;2023-02-01T12:14:38;7.80;99.90
7566;DHT22;3824;48.010;7.832;2023-02-01T12:17:22;7.80;99.90
7566;DHT22;3824;48.010;7.832;2023-02-01T12:20:04;7.80;99.90
7566;DHT22;3824;48.010;7.832;2023-02-01T12:22:45;7.60;99.90
7566;DHT22;3824;48.010;7.832;2023-02-01T12:25:30;7.70;99.90
7566;DHT22;3824;48.010;7.832;2023-02-01T12:31:19;7.60;99.90
7566;DHT22;3824;48.010;7.832;2023-02-01T12:34:11;7.50;99.90
7566;DHT22;3824;48.010;7.832;2023-02-01T12:36:51;7.50;99.90
7566;DHT22;3824;48.010;7.832;2023-02-01T12:39:24;7.40;99.90
7566;DHT22;3824;48.010;7.832;2023-02-01T12:41:58;7.30;99.90
7566;DHT22;3824;48.010;7.832;2023-02-01T12:44:40;7.30;99.90
7566;DHT22;3824;48.010;7.832;2023-02-01T12:47:16;7.30;99.90
7566;DHT22;3824;48.010;7.832;2023-02-01T12:49:53;7.50;99.90
7566;DHT22;3824;48.010;7.832;2023-02-01T12:52:28;7.30;99.90
7566;DHT22;3824;48.010;7.832;2023-02-01T12:55:03;7.20;99.90
7566;DHT22;3824;48.010;7.832;2023-02-01T12:57:34;7.30;99.90
7566;DHT22;3824;48.010;7.832;2023-02-01T13:00:09;7.30;99.90
7566;DHT22;3824;48.010;7.832;2023-02-01T13:02:43;7.20;99.90
7566;DHT22;3824;48.010;7.832;2023-02-01T13:05:15;7.20;99.90
7566;DHT22;3824;48.010;7.832;2023-02-01T13:07:47;7.20;99.90
7566;DHT22;3824;48.010;7.832;2023-02-01T13:10:18;7.10;99.90
7566;DHT22;3824;48.010;7.832;2023-02-01T13:12:51;7.10;99.90
7566;DHT22;3824;48.010;7.832;2023-02-01T13:15:24;5.70;99.90
7566;DHT22;3824;48.010;7.832;2023-02-01T13:17:53;7.10;99.90
7566;DHT22;3824;48.010;7.832;2023-02-01T13:20:23;7.10;99.90
7566;DHT22;3824;48.010;7.832;2023-02-01T13:22:54;7.10;99.90
7566;DHT22;3824;48.010;7.832;2023-02-01T13:25:30;7.20;99.90
7566;DHT22;3824;48.010;7.832;2023-02-01T13:28:03;7.10;99.90
7566;DHT22;3824;48.010;7.832;2023-02-01T13:30:43;7.20;99.90
7566;DHT22;3824;48.010;7.832;2023-02-01T13:33:27;7.20;99.90
7566;DHT22;3824;48.010;7.832;2023-02-01T13:42:18;7.20;99.90
7566;DHT22;3824;48.010;7.832;2023-02-01T13:44:48;7.10;99.90
7566;DHT22;3824;48.010;7.832;2023-02-01T13:47:28;7.00;99.90
7566;DHT22;3824;48.010;7.832;2023-02-01T13:49:57;7.00;99.90
7566;DHT22;3824;48.010;7.832;2023-02-01T13:52:34;7.00;99.90
7566;DHT22;3824;48.010;7.832;2023-02-01T13:55:27;7.00;99.90
7566;DHT22;3824;48.010;7.832;2023-02-01T13:58:06;7.00;99.90
7566;DHT22;3824;48.010;7.832;2023-02-01T14:00:38;6.90;99.90
7566;DHT22;3824;48.010;7.832;2023-02-01T14:03:12;6.90;99.90
7566;DHT22;3824;48.010;7.832;2023-02-01T14:09:17;6.80;99.90
7566;DHT22;3824;48.010;7.832;2023-02-01T14:11:47;6.90;99.90
7566;DHT22;3824;48.010;7.832;2023-02-01T14:14:45;6.80;99.90
7566;DHT22;3824;48.010;7.832;2023-02-01T14:17:36;6.80;99.90
7566;DHT22;3824;48.010;7.832;2023-02-01T14:23:37;6.80;99.90
7566;DHT22;3824;48.010;7.832;2023-02-01T14:26:14;6.80;99.90
7566;DHT22;3824;48.010;7.832;2023-02-01T14:28:55;6.70;99.90
7566;DHT22;3824;48.010;7.832;2023-02-01T14:31:43;6.70;99.90
7566;DHT22;3824;48.010;7.832;2023-02-01T14:34:20;6.70;99.90
7566;DHT22;3824;48.010;7.832;2023-02-01T14:36:51;6.50;99.90
7566;DHT22;3824;48.010;7.832;2023-02-01T14:39:27;6.60;99.90
7566;DHT22;3824;48.010;7.832;2023-02-01T14:41:57;6.50;99.90
7566;DHT22;3824;48.010;7.832;2023-02-01T14:44:35;6.50;99.90
7566;DHT22;3824;48.010;7.832;2023-02-01T14:47:08;6.50;99.90
7566;DHT22;3824;48.010;7.832;2023-02-01T14:49:38;6.50;99.90
7566;DHT22;3824;48.010;7.832;2023-02-01T14:52:13;6.90;99.90
7566;DHT22;3824;48.010;7.832;2023-02-01T14:54:43;6.40;99.90
7566;DHT22;3824;48.010;7.832;2023-02-01T14:57:15;6.40;99.90
7566;DHT22;3824;48.010;7.832;2023-02-01T14:59:45;6.40;99.90
7566;DHT22;3824;48.010;7.832;2023-02-01T15:02:20;6.40;99.90
7566;DHT22;3824;48.010;7.832;2023-02-01T15:04:54;6.40;99.90
7566;DHT22;3824;48.010;7.832;2023-02-01T15:07:22;6.40;99.90
7566;DHT22;3824;48.010;7.832;2023-02-01T15:09:52;6.40;99.90
7566;DHT22;3824;48.010;7.832;2023-02-01T15:12:23;6.40;99.90
7566;DHT22;3824;48.010;7.832;2023-02-01T15:15:14;7.00;99.90
7566;DHT22;3824;48.010;7.832;2023-02-01T15:17:50;6.30;99.90
7566;DHT22;3824;48.010;7.832;2023-02-01T15:20:19;6.30;99.90
7566;DHT22;3824;48.010;7.832;2023-02-01T15:22:58;6.60;99.90
7566;DHT22;3824;48.010;7.832;2023-02-01T15:25:28;6.30;99.90
7566;DHT22;3824;48.010;7.832;2023-02-01T15:27:56;6.30;99.90
7566;DHT22;3824;48.010;7.832;2023-02-01T15:30:26;6.30;99.90
7566;DHT22;3824;48.010;7.832;2023-02-01T15:33:05;6.30;99.90
7566;DHT22;3824;48.010;7.832;2023-02-01T15:35:39;6.30;99.90
7566;DHT22;3824;48.010;7.832;2023-02-01T15:38:37;6.30;99.90
7566;DHT22;3824;48.010;7.832;2023-02-01T15:41:08;6.30;99.90
7566;DHT22;3824;48.010;7.832;2023-02-01T15:43:38;6.30;99.90
7566;DHT22;3824;48.010;7.832;2023-02-01T15:46:11;6.30;99.90
7566;DHT22;3824;48.010;7.832;2023-02-01T15:48:43;6.30;99.90
7566;DHT22;3824;48.010;7.832;2023-02-01T15:51:18;6.20;99.90
7566;DHT22;3824;48.010;7.832;2023-02-01T15:53:49;6.30;99.90
7566;DHT22;3824;48.010;7.832;2023-02-01T15:56:23;6.20;99.90
7566;DHT22;3824;48.010;7.832;2023-02-01T15:58:53;6.30;99.90
7566;DHT22;3824;48.010;7.832;2023-02-01T16:01:21;6.20;99.90
7566;DHT22;3824;48.010;7.832;2023-02-01T16:03:48;6.20;99.90
7566;DHT22;3824;48.010;7.832;2023-02-01T16:06:32;6.20;99.90
7566;DHT22;3824;48.010;7.832;2023-02-01T16:09:07;6.20;99.90
7566;DHT22;3824;48.010;7.832;2023-02-01T16:11:47;6.20;99.90
7566;DHT22;3824;48.010;7.832;2023-02-01T16:14:14;6.20;99.90
7566;DHT22;3824;48.010;7.832;2023-02-01T16:16:41;6.20;99.90
7566;DHT22;3824;48.010;7.832;2023-02-01T16:19:08;6.20;99.90
7566;DHT22;3824;48.010;7.832;2023-02-01T16:21:35;6.20;99.90
7566;DHT22;3824;48.010;7.832;2023-02-01T16:24:02;7.10;99.90
7566;DHT22;3824;48.010;7.832;2023-02-01T16:26:29;6.20;99.90
7566;DHT22;3824;48.010;7.832;2023-02-01T16:28:58;6.20;99.90
7566;DHT22;3824;48.010;7.832;2023-02-01T16:31:29;6.10;99.90
7566;DHT22;3824;48.010;7.832;2023-02-01T16:33:57;6.10;99.90
7566;DHT22;3824;48.010;7.832;2023-02-01T16:36:24;6.50;99.90
7566;DHT22;3824;48.010;7.832;2023-02-01T16:38:52;6.00;99.90
7566;DHT22;3824;48.010;7.832;2023-02-01T16:41:20;6.00;99.90
7566;DHT22;3824;48.010;7.832;2023-02-01T16:43:50;6.00;99.90
7566;DHT22;3824;48.010;7.832;2023-02-01T16:46:20;6.00;99.90
7566;DHT22;3824;48.010;7.832;2023-02-01T16:48:53;7.60;99.90
7566;DHT22;3824;48.010;7.832;2023-02-01T16:51:21;6.00;99.90
7566;DHT22;3824;48.010;7.832;2023-02-01T16:53:49;6.00;99.90
7566;DHT22;3824;48.010;7.832;2023-02-01T16:56:17;5.90;99.90
7566;DHT22;3824;48.010;7.832;2023-02-01T16:58:45;5.90;99.90
7566;DHT22;3824;48.010;7.832;2023-02-01T17:01:13;5.90;99.90
7566;DHT22;3824;48.010;7.832;2023-02-01T17:03:42;6.00;99.90
7566;DHT22;3824;48.010;7.832;2023-02-01T17:06:12;5.90;99.90
7566;DHT22;3824;48.010;7.832;2023-02-01T17:08:41;5.90;99.90